createdAt,value
2018-01-31T01:52:20.485Z,90.86
2018-01-31T01:52:21.032Z,93.56
2018-01-31T01:53:13.243Z,93.61
2018-01-31T01:54:13.155Z,93.75
2018-01-31T01:55:13.085Z,93.89
2018-01-31T01:56:12.994Z,93.80
2018-01-31T01:57:12.897Z,94.13
2018-01-31T01:58:12.808Z,93.42
2018-01-31T01:59:12.738Z,93.37
2018-01-31T02:00:12.664Z,93.61
2018-01-31T02:01:12.869Z,94.18
2018-01-31T02:02:12.481Z,93.94
2018-01-31T02:03:12.391Z,93.85
2018-01-31T02:04:12.313Z,93.51
2018-01-31T02:05:12.238Z,93.28
2018-01-31T02:06:12.135Z,93.80
2018-01-31T02:07:12.054Z,93.89
2018-01-31T02:08:11.977Z,93.66
2018-01-31T02:09:11.892Z,93.56
2018-01-31T02:10:11.811Z,93.75
2018-01-31T02:11:11.716Z,93.94
2018-01-31T02:12:11.642Z,93.56
2018-01-31T02:13:11.569Z,93.47
2018-01-31T02:14:11.469Z,94.04
2018-01-31T02:15:11.384Z,94.23
2018-01-31T02:16:11.293Z,94.23
2018-01-31T02:17:11.215Z,94.23
2018-01-31T02:18:11.147Z,94.51
2018-01-31T02:19:11.040Z,94.60
2018-01-31T02:20:10.956Z,94.60
2018-01-31T02:21:11.169Z,94.70
2018-01-31T02:22:10.789Z,94.89
2018-01-31T02:23:10.706Z,94.98
2018-01-31T02:24:10.618Z,94.70
2018-01-31T02:25:10.530Z,94.79
2018-01-31T02:26:10.472Z,94.60
2018-01-31T02:27:10.366Z,94.70
2018-01-31T02:28:10.284Z,95.26
2018-01-31T02:29:10.187Z,95.17
2018-01-31T02:30:10.116Z,95.36
2018-01-31T02:31:10.031Z,95.45
2018-01-31T02:32:09.940Z,95.55
2018-01-31T02:33:09.859Z,95.74
2018-01-31T02:34:09.770Z,95.45
2018-01-31T02:35:09.690Z,95.26
2018-01-31T02:36:09.616Z,95.83
2018-01-31T02:37:09.513Z,95.55
2018-01-31T02:38:09.426Z,96.02
2018-01-31T02:39:09.345Z,95.74
2018-01-31T02:40:09.266Z,96.50
2018-01-31T02:41:09.185Z,96.40
2018-01-31T02:42:09.096Z,96.02
2018-01-31T02:43:09.016Z,96.59
2018-01-31T02:44:08.934Z,96.12
2018-01-31T02:45:08.844Z,96.40
2018-01-31T02:46:09.056Z,96.59
2018-01-31T02:47:08.671Z,96.69
2018-01-31T02:48:08.581Z,97.16
2018-01-31T02:49:08.506Z,96.97
2018-01-31T02:50:08.418Z,96.59
2018-01-31T02:51:08.340Z,96.69
2018-01-31T02:52:08.246Z,96.78
2018-01-31T02:53:08.156Z,96.97
2018-01-31T02:54:08.080Z,96.64
2018-01-31T02:55:07.996Z,97.20
2018-01-31T02:56:07.918Z,97.20
2018-01-31T02:57:07.824Z,97.30
2018-01-31T02:58:07.749Z,97.11
2018-01-31T02:59:07.660Z,97.39
2018-01-31T03:00:07.567Z,97.20
2018-01-31T03:01:07.485Z,97.11
2018-01-31T03:02:07.401Z,97.77
2018-01-31T03:03:07.308Z,97.77
2018-01-31T03:04:07.233Z,97.58
2018-01-31T03:05:07.140Z,97.58
2018-01-31T03:06:07.058Z,97.58
2018-01-31T03:07:06.970Z,97.77
2018-01-31T03:08:06.893Z,97.77
2018-01-31T03:09:06.813Z,97.58
2018-01-31T03:10:06.725Z,97.67
2018-01-31T03:11:06.635Z,97.77
2018-01-31T03:12:06.548Z,97.39
2018-01-31T03:13:06.472Z,97.49
2018-01-31T03:14:06.384Z,97.67
2018-01-31T03:15:06.296Z,97.77
2018-01-31T03:16:06.217Z,97.77
2018-01-31T03:17:06.128Z,97.77
2018-01-31T03:18:06.039Z,97.30
2018-01-31T03:19:05.951Z,97.11
2018-01-31T03:20:05.877Z,97.30
2018-01-31T03:21:06.096Z,97.96
2018-01-31T03:22:05.695Z,96.92
2018-01-31T03:23:05.625Z,97.39
2018-01-31T03:24:05.523Z,97.20
2018-01-31T03:25:05.454Z,97.39
2018-01-31T03:26:05.360Z,96.92
2018-01-31T03:27:05.274Z,97.39
2018-01-31T03:28:05.203Z,97.39
2018-01-31T03:29:05.099Z,97.39
2018-01-31T03:30:05.023Z,97.39
2018-01-31T03:31:04.942Z,97.39
2018-01-31T03:32:04.846Z,97.96
2018-01-31T03:33:04.775Z,97.67
2018-01-31T03:34:04.677Z,97.58
2018-01-31T03:35:04.601Z,97.77
2018-01-31T03:36:04.512Z,97.49
2018-01-31T03:37:04.424Z,96.92
2018-01-31T03:38:04.332Z,97.67
2018-01-31T03:39:04.253Z,97.39
2018-01-31T03:40:04.172Z,97.67
2018-01-31T03:41:04.078Z,97.67
2018-01-31T03:42:04.002Z,97.67
2018-01-31T03:43:03.910Z,97.58
2018-01-31T03:44:03.828Z,97.86
2018-01-31T03:45:03.737Z,97.20
2018-01-31T03:46:03.647Z,97.20
2018-01-31T03:47:03.574Z,97.20
2018-01-31T03:48:03.496Z,97.58
2018-01-31T03:49:03.399Z,97.39
2018-01-31T03:50:03.314Z,97.67
2018-01-31T03:51:03.225Z,97.67
2018-01-31T03:52:03.154Z,97.77
2018-01-31T03:53:03.066Z,97.39
2018-01-31T03:54:02.973Z,97.49
2018-01-31T03:55:02.891Z,97.49
2018-01-31T03:56:02.796Z,97.49
2018-01-31T03:57:02.726Z,97.49
2018-01-31T03:58:02.645Z,97.67
2018-01-31T03:59:02.551Z,97.67
2018-01-31T04:00:02.478Z,97.77
2018-01-31T04:01:02.387Z,97.39
2018-01-31T04:02:02.299Z,97.39
2018-01-31T04:03:02.204Z,97.49
2018-01-31T04:04:02.127Z,96.92
2018-01-31T04:05:02.044Z,97.30
2018-01-31T04:06:01.957Z,97.96
2018-01-31T04:07:01.863Z,97.77
2018-01-31T04:08:01.780Z,97.77
2018-01-31T04:09:01.691Z,97.58
2018-01-31T04:10:01.613Z,97.58
2018-01-31T04:11:01.533Z,97.77
2018-01-31T04:12:01.445Z,97.77
2018-01-31T04:13:01.357Z,97.86
2018-01-31T04:14:01.277Z,97.58
2018-01-31T04:15:01.180Z,97.30
2018-01-31T04:16:01.107Z,97.01
2018-01-31T04:17:01.032Z,97.67
2018-01-31T04:18:00.927Z,97.86
2018-01-31T04:19:00.847Z,97.67
2018-01-31T04:20:00.750Z,97.49
2018-01-31T04:21:00.684Z,97.86
2018-01-31T04:22:00.596Z,97.77
2018-01-31T04:23:00.501Z,96.83
2018-01-31T04:24:00.428Z,97.77
2018-01-31T04:25:00.324Z,97.39
2018-01-31T04:26:00.244Z,97.20
2018-01-31T04:27:00.185Z,97.11
2018-01-31T04:28:00.077Z,97.39
2018-01-31T04:29:00.015Z,97.30
2018-01-31T04:29:59.906Z,96.64
2018-01-31T04:30:59.819Z,96.92
2018-01-31T04:31:59.736Z,96.54
2018-01-31T04:32:59.638Z,96.73
2018-01-31T04:33:59.563Z,97.01
2018-01-31T04:34:59.483Z,97.25
2018-01-31T04:35:59.399Z,96.73
2018-01-31T04:36:59.305Z,96.35
2018-01-31T04:37:59.222Z,96.35
2018-01-31T04:38:59.127Z,96.02
2018-01-31T04:39:59.062Z,96.64
2018-01-31T04:40:58.968Z,96.26
2018-01-31T04:41:58.878Z,96.40
2018-01-31T04:42:58.796Z,96.31
2018-01-31T04:43:58.758Z,96.31
2018-01-31T04:44:58.630Z,96.31
2018-01-31T04:45:58.847Z,96.31
2018-01-31T04:46:58.451Z,96.59
2018-01-31T04:47:58.371Z,96.02
2018-01-31T04:48:58.279Z,95.64
2018-01-31T04:49:58.196Z,95.83
2018-01-31T04:50:58.133Z,95.93
2018-01-31T04:51:58.060Z,95.36
2018-01-31T04:52:57.948Z,95.74
2018-01-31T04:53:57.858Z,95.45
2018-01-31T04:54:57.768Z,95.74
2018-01-31T04:55:57.702Z,95.55
2018-01-31T04:56:57.608Z,95.93
2018-01-31T04:57:57.535Z,95.74
2018-01-31T04:58:57.431Z,95.93
2018-01-31T04:59:57.354Z,95.55
2018-01-31T05:00:57.262Z,96.02
2018-01-31T05:01:57.186Z,95.64
2018-01-31T05:02:57.094Z,95.83
2018-01-31T05:03:57.014Z,95.55
2018-01-31T05:04:56.918Z,95.64
2018-01-31T05:05:57.136Z,95.64
2018-01-31T05:06:56.766Z,95.64
2018-01-31T05:07:56.682Z,95.45
2018-01-31T05:08:56.580Z,95.45
2018-01-31T05:09:56.499Z,95.26
2018-01-31T05:10:56.414Z,94.70
2018-01-31T05:11:56.335Z,94.79
2018-01-31T05:12:56.252Z,95.07
2018-01-31T05:13:56.163Z,94.70
2018-01-31T05:24:31.486Z,94.70
2018-01-31T05:24:32.516Z,94.98
2018-01-31T05:25:32.436Z,94.98
2018-01-31T05:26:32.353Z,94.79
2018-01-31T05:27:32.277Z,94.89
2018-01-31T05:28:32.191Z,94.89
2018-01-31T05:29:32.098Z,94.70
2018-01-31T05:30:32.027Z,94.60
2018-01-31T05:31:31.949Z,94.60
2018-01-31T05:32:31.849Z,95.07
2018-01-31T05:33:31.763Z,94.98
2018-01-31T05:34:31.675Z,94.89
2018-01-31T05:35:31.599Z,94.79
2018-01-31T05:36:31.525Z,94.79
2018-01-31T05:37:31.425Z,94.89
2018-01-31T05:38:31.351Z,94.79
2018-01-31T05:39:31.251Z,94.70
2018-01-31T05:40:31.164Z,94.79
2018-01-31T05:41:31.089Z,94.70
2018-01-31T05:42:31.001Z,94.79
2018-01-31T05:43:30.915Z,95.07
2018-01-31T05:44:30.826Z,94.70
2018-01-31T05:45:30.751Z,95.07
2018-01-31T05:46:30.664Z,94.89
2018-01-31T05:47:30.577Z,94.98
2018-01-31T05:48:30.491Z,95.26
2018-01-31T05:49:30.402Z,94.98
2018-01-31T05:50:30.315Z,94.51
2018-01-31T05:51:30.251Z,95.45
2018-01-31T05:52:30.153Z,95.07
2018-01-31T05:53:30.066Z,95.17
2018-01-31T05:54:29.977Z,94.98
2018-01-31T05:55:29.891Z,95.26
2018-01-31T05:56:29.817Z,95.64
2018-01-31T05:57:29.726Z,95.36
2018-01-31T05:58:29.652Z,95.74
2018-01-31T05:59:29.552Z,95.26
2018-01-31T06:00:29.466Z,94.98
2018-01-31T06:01:29.392Z,94.89
2018-01-31T06:02:29.302Z,95.26
2018-01-31T06:03:29.216Z,95.64
2018-01-31T06:04:29.128Z,95.45
2018-01-31T06:05:29.053Z,95.17
2018-01-31T06:06:28.966Z,95.17
2018-01-31T06:07:28.879Z,95.07
2018-01-31T06:08:28.791Z,94.70
2018-01-31T06:09:28.703Z,94.79
2018-01-31T06:10:28.628Z,94.89
2018-01-31T06:11:28.541Z,94.70
2018-01-31T06:12:28.453Z,94.79
2018-01-31T06:13:28.379Z,94.79
2018-01-31T06:14:28.279Z,94.56
2018-01-31T06:15:28.204Z,94.79
2018-01-31T06:16:28.117Z,94.79
2018-01-31T06:17:28.029Z,94.84
2018-01-31T06:18:27.953Z,94.70
2018-01-31T06:19:27.854Z,94.74
2018-01-31T06:20:27.780Z,94.74
2018-01-31T06:21:27.694Z,94.79
2018-01-31T06:22:27.604Z,95.03
2018-01-31T06:23:27.530Z,94.65
2018-01-31T06:24:27.431Z,94.93
2018-01-31T06:25:27.359Z,94.93
2018-01-31T06:26:27.270Z,94.93
2018-01-31T06:27:27.180Z,94.84
2018-01-31T06:28:27.094Z,94.74
2018-01-31T06:29:27.007Z,94.84
2018-01-31T06:30:26.930Z,94.74
2018-01-31T06:31:26.844Z,94.93
2018-01-31T06:32:26.760Z,94.84
2018-01-31T06:33:26.670Z,94.84
2018-01-31T06:34:26.583Z,94.74
2018-01-31T06:35:26.506Z,95.12
2018-01-31T06:36:26.432Z,94.56
2018-01-31T06:37:26.332Z,94.93
2018-01-31T06:38:26.256Z,94.46
2018-01-31T06:39:26.170Z,94.74
2018-01-31T06:40:26.081Z,94.65
2018-01-31T06:41:25.996Z,94.27
2018-01-31T06:42:25.920Z,94.84
2018-01-31T06:43:25.831Z,94.74
2018-01-31T06:44:25.760Z,94.46
2018-01-31T06:45:25.658Z,94.37
2018-01-31T06:46:25.582Z,94.37
2018-01-31T06:47:25.483Z,94.27
2018-01-31T06:48:25.407Z,94.37
2018-01-31T06:49:25.321Z,94.46
2018-01-31T06:50:25.232Z,94.37
2018-01-31T06:51:25.146Z,94.46
2018-01-31T06:52:25.058Z,94.18
2018-01-31T06:53:24.984Z,94.18
2018-01-31T06:54:24.908Z,94.37
2018-01-31T06:55:24.808Z,94.18
2018-01-31T06:56:24.721Z,94.74
2018-01-31T06:57:24.638Z,94.65
2018-01-31T06:58:24.557Z,94.56
2018-01-31T06:59:24.472Z,93.99
2018-01-31T07:00:24.384Z,94.18
2018-01-31T07:01:24.309Z,94.27
2018-01-31T07:02:24.526Z,94.37
2018-01-31T07:03:24.137Z,94.46
2018-01-31T07:04:24.058Z,94.65
2018-01-31T07:05:23.959Z,94.27
2018-01-31T07:06:23.884Z,94.46
2018-01-31T07:07:23.812Z,94.18
2018-01-31T07:08:23.710Z,94.27
2018-01-31T07:09:23.634Z,94.46
2018-01-31T07:10:23.538Z,94.56
2018-01-31T07:11:23.459Z,94.46
2018-01-31T07:12:23.373Z,94.56
2018-01-31T07:13:23.293Z,94.13
2018-01-31T07:14:23.196Z,94.42
2018-01-31T07:15:23.122Z,94.23
2018-01-31T07:16:23.025Z,93.84
2018-01-31T07:17:22.935Z,93.84
2018-01-31T07:18:22.853Z,93.65
2018-01-31T07:19:22.772Z,94.04
2018-01-31T07:20:22.693Z,93.65
2018-01-31T07:21:22.599Z,93.37
2018-01-31T07:22:22.521Z,93.27
2018-01-31T07:23:22.434Z,93.37
2018-01-31T07:24:22.350Z,93.65
2018-01-31T07:25:22.260Z,93.56
2018-01-31T07:26:22.174Z,93.65
2018-01-31T07:27:22.101Z,93.18
2018-01-31T07:28:22.007Z,93.18
2018-01-31T07:29:21.918Z,93.27
2018-01-31T07:30:21.843Z,93.27
2018-01-31T07:31:21.777Z,93.46
2018-01-31T07:32:21.669Z,92.90
2018-01-31T07:33:21.599Z,93.27
2018-01-31T07:34:21.607Z,93.18
2018-01-31T07:35:21.718Z,93.37
2018-01-31T07:36:21.339Z,93.46
2018-01-31T07:37:21.248Z,93.18
2018-01-31T07:38:21.174Z,93.08
2018-01-31T07:39:21.087Z,93.18
2018-01-31T07:40:21.001Z,93.27
2018-01-31T07:41:20.915Z,93.27
2018-01-31T07:42:20.824Z,93.18
2018-01-31T07:43:20.748Z,92.90
2018-01-31T07:44:20.679Z,92.52
2018-01-31T07:45:20.572Z,92.99
2018-01-31T07:46:20.503Z,93.27
2018-01-31T07:47:20.419Z,93.46
2018-01-31T07:48:20.330Z,92.61
2018-01-31T07:49:20.253Z,92.33
2018-01-31T07:50:20.155Z,92.57
2018-01-31T07:51:20.075Z,92.57
2018-01-31T07:52:19.988Z,92.57
2018-01-31T07:53:19.898Z,92.76
2018-01-31T07:54:19.830Z,92.94
2018-01-31T07:55:19.745Z,92.47
2018-01-31T07:56:19.687Z,92.38
2018-01-31T07:57:19.564Z,92.38
2018-01-31T07:58:19.485Z,92.28
2018-01-31T07:59:19.397Z,92.66
2018-01-31T08:00:19.327Z,92.76
2018-01-31T08:01:19.253Z,92.57
2018-01-31T08:02:19.155Z,92.09
2018-01-31T08:03:19.075Z,91.71
2018-01-31T08:04:18.980Z,92.47
2018-01-31T08:05:18.904Z,92.00
2018-01-31T08:06:19.149Z,92.09
2018-01-31T08:07:18.960Z,92.19
2018-01-31T08:08:18.664Z,92.00
2018-01-31T08:09:18.562Z,92.19
2018-01-31T08:10:18.478Z,91.62
2018-01-31T08:11:18.424Z,92.04
2018-01-31T08:12:18.312Z,91.90
2018-01-31T08:13:18.229Z,91.71
2018-01-31T08:14:18.144Z,91.95
2018-01-31T08:15:18.078Z,91.85
2018-01-31T08:16:17.980Z,91.95
2018-01-31T08:17:18.190Z,91.85
2018-01-31T08:18:17.822Z,91.76
2018-01-31T08:19:17.732Z,92.14
2018-01-31T08:20:17.651Z,92.61
2018-01-31T08:21:17.907Z,92.52
2018-01-31T08:22:17.474Z,92.71
2018-01-31T08:23:17.390Z,92.23
2018-01-31T08:24:17.305Z,92.80
2018-01-31T08:25:17.227Z,92.90
2018-01-31T08:26:17.148Z,93.75
2018-01-31T08:27:17.059Z,94.32
2018-01-31T08:28:16.982Z,94.98
2018-01-31T08:29:16.893Z,95.36
2018-01-31T08:30:16.845Z,95.93
2018-01-31T08:31:16.725Z,96.12
2018-01-31T08:32:16.654Z,95.84
2018-01-31T08:33:16.560Z,95.26
2018-01-31T08:34:16.486Z,95.26
2018-01-31T08:35:16.397Z,95.45
2018-01-31T08:36:16.304Z,95.65
2018-01-31T08:37:16.236Z,96.78
2018-01-31T08:38:16.144Z,95.93
2018-01-31T08:39:16.249Z,95.65
2018-01-31T08:40:16.198Z,96.59
2018-01-31T08:41:15.905Z,96.78
2018-01-31T08:42:15.808Z,96.69
2018-01-31T08:43:15.734Z,96.69
2018-01-31T08:44:15.654Z,96.69
2018-01-31T08:45:15.557Z,96.78
2018-01-31T08:46:15.478Z,97.07
2018-01-31T08:47:15.408Z,97.73
2018-01-31T08:48:15.306Z,97.83
2018-01-31T08:49:15.233Z,97.54
2018-01-31T08:50:15.158Z,97.83
2018-01-31T08:51:15.056Z,98.30
2018-01-31T08:52:14.978Z,97.73
2018-01-31T08:53:14.908Z,98.68
2018-01-31T08:54:14.810Z,99.15
2018-01-31T08:55:14.731Z,99.44
2018-01-31T08:56:14.648Z,99.53
2018-01-31T08:57:14.553Z,99.53
2018-01-31T08:58:14.517Z,99.63
2018-01-31T08:59:14.437Z,99.82
2018-01-31T09:00:14.796Z,99.25
2018-01-31T09:01:14.542Z,99.53
2018-01-31T09:02:14.565Z,99.44
2018-01-31T09:03:14.558Z,99.82
2018-01-31T09:04:13.986Z,99.44
2018-01-31T09:05:13.884Z,99.63
2018-01-31T09:06:13.815Z,99.82
2018-01-31T09:07:13.740Z,99.72
2018-01-31T09:08:13.641Z,99.99
2018-01-31T09:09:13.575Z,99.99
2018-01-31T09:10:13.499Z,99.99
2018-01-31T09:11:13.405Z,99.99
2018-01-31T09:12:13.308Z,99.99
2018-01-31T09:13:13.235Z,99.99
2018-01-31T09:14:13.139Z,99.99
2018-01-31T09:15:13.065Z,99.99
2018-01-31T09:16:12.984Z,99.99
2018-01-31T09:17:12.901Z,99.99
2018-01-31T09:18:12.811Z,99.99
2018-01-31T09:19:12.720Z,99.99
2018-01-31T09:20:12.638Z,99.99
2018-01-31T09:21:12.557Z,99.99
2018-01-31T09:22:12.474Z,99.99
2018-01-31T09:23:12.392Z,99.99
2018-01-31T09:24:12.317Z,99.99
2018-01-31T09:25:12.239Z,99.99
2018-01-31T09:26:12.135Z,99.99
2018-01-31T09:27:12.070Z,99.99
2018-01-31T09:28:11.975Z,99.99
2018-01-31T09:29:11.881Z,99.99
2018-01-31T09:30:11.819Z,99.99
2018-01-31T09:31:11.784Z,99.99
2018-01-31T09:32:11.643Z,99.99
2018-01-31T09:33:11.563Z,99.99
2018-01-31T09:34:11.474Z,99.99
2018-01-31T09:35:11.392Z,99.99
2018-01-31T09:36:11.319Z,99.99
2018-01-31T09:37:11.234Z,99.99
2018-01-31T09:38:11.146Z,99.99
2018-01-31T09:39:11.399Z,99.99
2018-01-31T09:40:11.407Z,99.99
2018-01-31T09:41:11.415Z,99.99
2018-01-31T09:42:10.812Z,99.99
2018-01-31T09:43:10.743Z,99.99
2018-01-31T09:44:10.637Z,99.99
2018-01-31T09:45:10.566Z,99.99
2018-01-31T09:46:10.480Z,99.99
2018-01-31T09:47:10.592Z,99.99
2018-01-31T09:48:10.578Z,99.99
2018-01-31T09:49:10.222Z,99.99
2018-01-31T09:50:10.168Z,99.99
2018-01-31T09:51:10.078Z,99.99
2018-01-31T09:52:09.980Z,99.99
2018-01-31T09:53:09.893Z,99.99
2018-01-31T09:54:09.837Z,99.99
2018-01-31T09:55:09.740Z,99.99
2018-01-31T09:56:09.639Z,99.99
2018-01-31T09:57:09.556Z,99.99
2018-01-31T09:58:09.495Z,99.99
2018-01-31T09:59:09.393Z,99.99
2018-01-31T10:00:09.314Z,99.99
2018-01-31T10:01:09.240Z,99.99
2018-01-31T10:02:09.137Z,99.99
2018-01-31T10:03:09.066Z,99.99
2018-01-31T10:04:08.996Z,99.99
2018-01-31T10:05:08.895Z,99.99
2018-01-31T10:06:08.810Z,99.99
2018-01-31T10:07:08.730Z,99.99
2018-01-31T10:08:08.642Z,99.99
2018-01-31T10:09:08.572Z,99.99
2018-01-31T10:10:08.479Z,99.99
2018-01-31T10:11:08.395Z,99.99
2018-01-31T10:12:08.317Z,99.99
2018-01-31T10:13:08.236Z,99.99
2018-01-31T10:14:08.142Z,99.99
2018-01-31T10:15:08.067Z,99.99
2018-01-31T10:16:07.998Z,99.99
2018-01-31T10:17:08.236Z,99.99
2018-01-31T10:18:07.816Z,99.99
2018-01-31T10:19:07.728Z,99.99
2018-01-31T10:20:07.648Z,99.99
2018-01-31T10:21:07.553Z,99.99
2018-01-31T10:22:07.481Z,99.99
2018-01-31T10:23:07.408Z,99.99
2018-01-31T10:24:07.317Z,99.99
2018-01-31T10:25:07.243Z,99.99
2018-01-31T10:26:07.143Z,99.99
2018-01-31T10:27:07.062Z,99.99
2018-01-31T10:28:06.980Z,99.99
2018-01-31T10:29:06.898Z,99.99
2018-01-31T10:30:06.809Z,99.99
2018-01-31T10:31:06.736Z,99.99
2018-01-31T10:32:06.641Z,99.99
2018-01-31T10:33:06.573Z,99.99
2018-01-31T10:34:06.488Z,99.99
2018-01-31T10:35:06.388Z,99.99
2018-01-31T10:36:06.307Z,99.99
2018-01-31T10:37:06.218Z,99.99
2018-01-31T10:38:06.144Z,99.99
2018-01-31T10:39:06.075Z,99.99
2018-01-31T10:40:05.969Z,99.99
2018-01-31T10:41:05.900Z,99.99
2018-01-31T10:42:05.808Z,99.99
2018-01-31T10:43:05.717Z,99.99
2018-01-31T10:44:05.643Z,99.99
2018-01-31T10:45:05.559Z,99.99
2018-01-31T10:46:05.472Z,99.99
2018-01-31T10:47:05.399Z,99.99
2018-01-31T10:48:05.306Z,99.99
2018-01-31T10:49:05.226Z,99.99
2018-01-31T10:50:05.197Z,99.99
2018-01-31T10:51:05.068Z,99.99
2018-01-31T10:52:04.978Z,99.99
2018-01-31T10:53:04.893Z,99.99
2018-01-31T10:57:28.597Z,99.99
2018-01-31T10:57:28.722Z,99.99
2018-01-31T10:58:04.483Z,99.99
2018-01-31T10:59:04.392Z,99.99
2018-01-31T11:00:04.323Z,99.99
2018-01-31T11:01:04.245Z,99.99
2018-01-31T11:02:04.146Z,99.99
2018-01-31T11:03:04.068Z,99.99
2018-01-31T11:04:03.980Z,99.99
2018-01-31T11:05:03.898Z,99.99
2018-01-31T11:06:03.808Z,99.99
2018-01-31T11:07:03.746Z,99.99
2018-01-31T11:08:03.649Z,99.99
2018-01-31T11:09:03.571Z,99.99
2018-01-31T11:10:03.496Z,99.99
2018-01-31T11:11:03.401Z,99.99
2018-01-31T11:12:03.317Z,99.99
2018-01-31T11:13:03.236Z,99.99
2018-01-31T11:14:03.142Z,99.99
2018-01-31T11:15:03.068Z,99.99
2018-01-31T11:16:02.984Z,99.99
2018-01-31T11:17:02.895Z,99.99
2018-01-31T11:18:02.827Z,99.99
2018-01-31T11:19:02.738Z,99.99
2018-01-31T11:20:02.688Z,99.99
2018-01-31T11:21:02.578Z,99.99
2018-01-31T11:22:02.494Z,99.99
2018-01-31T11:23:02.396Z,99.99
2018-01-31T11:24:02.322Z,99.99
2018-01-31T11:25:02.236Z,99.99
2018-01-31T11:26:02.174Z,99.99
2018-01-31T11:27:02.075Z,99.99
2018-01-31T11:28:01.988Z,99.99
2018-01-31T11:29:01.925Z,99.99
2018-01-31T11:30:01.824Z,99.99
2018-01-31T11:31:01.758Z,99.99
2018-01-31T11:32:01.685Z,99.99
2018-01-31T11:33:01.576Z,99.99
2018-01-31T11:34:01.504Z,99.99
2018-01-31T11:35:01.429Z,99.99
2018-01-31T11:36:01.324Z,99.99
2018-01-31T11:37:01.255Z,99.99
2018-01-31T11:38:01.160Z,99.99
2018-01-31T11:39:01.097Z,99.99
2018-01-31T11:40:01.004Z,99.99
2018-01-31T11:41:00.965Z,99.99
2018-01-31T11:42:01.014Z,99.99
2018-01-31T11:43:00.753Z,99.99
2018-01-31T11:44:00.670Z,99.99
2018-01-31T11:45:00.590Z,99.99
2018-01-31T11:46:00.503Z,99.99
2018-01-31T11:47:00.424Z,99.99
2018-01-31T11:48:00.338Z,99.99
2018-01-31T11:49:00.253Z,99.99
2018-01-31T11:50:00.211Z,99.99
2018-01-31T11:51:00.101Z,99.99
2018-01-31T11:52:00.033Z,99.99
2018-01-31T11:52:59.921Z,99.99
2018-01-31T11:53:59.854Z,99.99
2018-01-31T11:54:59.770Z,99.99
2018-01-31T11:55:59.676Z,99.99
2018-01-31T11:56:59.604Z,99.99
2018-01-31T11:57:59.518Z,99.99
2018-01-31T11:58:59.426Z,99.99
2018-01-31T11:59:59.356Z,99.99
2018-01-31T12:00:59.262Z,99.99
2018-01-31T12:01:59.192Z,99.99
2018-01-31T12:02:59.104Z,99.99
2018-01-31T12:03:59.013Z,99.99
2018-01-31T12:04:58.945Z,99.99
2018-01-31T12:05:58.852Z,99.99
2018-01-31T12:06:58.777Z,99.99
2018-01-31T12:07:58.702Z,99.99
2018-01-31T12:08:58.613Z,99.99
2018-01-31T12:09:58.539Z,99.99
2018-01-31T12:10:58.454Z,99.99
2018-01-31T12:11:58.370Z,99.99
2018-01-31T12:12:58.283Z,99.99
2018-01-31T12:13:58.198Z,99.99
2018-01-31T12:14:58.124Z,99.99
2018-01-31T12:15:58.110Z,99.99
2018-01-31T12:16:57.948Z,99.99
2018-01-31T12:17:57.878Z,99.99
2018-01-31T12:18:57.803Z,99.99
2018-01-31T12:19:57.699Z,99.99
2018-01-31T12:20:57.634Z,99.99
2018-01-31T12:21:57.544Z,99.99
2018-01-31T12:22:57.477Z,99.99
2018-01-31T12:23:57.382Z,99.99
2018-01-31T12:24:57.299Z,99.99
2018-01-31T12:25:57.228Z,99.99
2018-01-31T12:26:57.129Z,99.99
2018-01-31T12:27:57.049Z,99.99
2018-01-31T12:28:56.980Z,99.99
2018-01-31T12:29:56.891Z,99.99
2018-01-31T12:30:56.801Z,99.99
2018-01-31T12:31:56.732Z,99.99
2018-01-31T12:32:56.643Z,99.99
2018-01-31T12:33:56.570Z,99.99
2018-01-31T12:34:56.487Z,99.99
2018-01-31T12:35:56.391Z,99.99
2018-01-31T12:36:56.330Z,99.99
2018-01-31T12:37:56.227Z,99.97
2018-01-31T12:38:56.150Z,99.97
2018-01-31T12:39:56.068Z,99.99
2018-01-31T12:40:55.991Z,99.78
2018-01-31T12:41:55.909Z,99.99
2018-01-31T12:42:55.836Z,99.99
2018-01-31T12:43:55.741Z,99.99
2018-01-31T12:44:55.658Z,99.99
2018-01-31T12:45:55.610Z,99.99
2018-01-31T12:46:55.490Z,99.97
2018-01-31T12:47:55.419Z,99.99
2018-01-31T12:48:55.328Z,99.59
2018-01-31T12:49:55.261Z,99.50
2018-01-31T12:50:55.183Z,99.40
2018-01-31T12:51:55.095Z,98.93
2018-01-31T12:52:55.015Z,99.11
2018-01-31T12:53:54.931Z,99.78
2018-01-31T12:54:54.841Z,99.50
2018-01-31T12:55:54.759Z,99.40
2018-01-31T12:56:54.679Z,99.78
2018-01-31T12:57:54.621Z,99.99
2018-01-31T12:58:54.522Z,98.88
2018-01-31T12:59:54.430Z,98.74
2018-01-31T13:00:54.363Z,98.93
2018-01-31T13:01:54.272Z,99.64
2018-01-31T13:02:54.207Z,98.97
2018-01-31T13:03:54.107Z,98.03
2018-01-31T13:04:54.028Z,98.41
2018-01-31T13:05:53.951Z,98.22
2018-01-31T13:06:53.871Z,98.74
2018-01-31T13:07:53.802Z,98.31
2018-01-31T13:08:53.710Z,98.17
2018-01-31T13:09:53.621Z,99.59
2018-01-31T13:10:53.647Z,99.11
2018-01-31T13:11:53.569Z,98.36
2018-01-31T13:12:53.371Z,99.16
2018-01-31T13:13:53.302Z,97.97
2018-01-31T13:14:53.223Z,98.31
2018-01-31T13:15:53.129Z,98.07
2018-01-31T13:16:53.060Z,98.60
2018-01-31T13:17:52.982Z,98.93
2018-01-31T13:18:52.883Z,98.03
2018-01-31T13:19:52.800Z,98.12
2018-01-31T13:20:52.720Z,98.22
2018-01-31T13:21:52.641Z,98.17
2018-01-31T13:22:52.561Z,98.64
2018-01-31T13:23:52.476Z,98.93
2018-01-31T13:24:52.398Z,98.64
2018-01-31T13:25:52.309Z,98.83
2018-01-31T13:26:52.230Z,98.64
2018-01-31T13:27:52.162Z,98.17
2018-01-31T13:28:52.061Z,97.97
2018-01-31T13:29:51.991Z,98.03
2018-01-31T13:30:51.914Z,98.03
2018-01-31T13:31:51.827Z,97.93
2018-01-31T13:32:51.741Z,98.03
2018-01-31T13:33:51.660Z,98.03
2018-01-31T13:34:51.569Z,97.83
2018-01-31T13:35:51.503Z,98.45
2018-01-31T13:36:51.413Z,98.03
2018-01-31T13:37:51.335Z,98.07
2018-01-31T13:38:51.264Z,97.45
2018-01-31T13:39:51.158Z,98.41
2018-01-31T13:40:51.091Z,98.12
2018-01-31T13:41:50.998Z,98.60
2018-01-31T13:42:50.935Z,97.97
2018-01-31T13:43:50.838Z,97.45
2018-01-31T13:44:50.764Z,98.69
2018-01-31T13:45:50.687Z,98.03
2018-01-31T13:46:50.656Z,97.88
2018-01-31T13:47:50.508Z,97.74
2018-01-31T13:48:50.439Z,97.74
2018-01-31T13:49:50.355Z,97.27
2018-01-31T13:50:50.284Z,97.08
2018-01-31T13:51:50.198Z,97.64
2018-01-31T13:52:50.113Z,98.50
2018-01-31T13:53:50.044Z,98.12
2018-01-31T13:54:49.934Z,97.45
2018-01-31T13:55:49.868Z,97.27
2018-01-31T13:56:49.777Z,97.64
2018-01-31T13:57:49.718Z,97.64
2018-01-31T13:58:49.616Z,97.55
2018-01-31T13:59:49.529Z,97.27
2018-01-31T14:00:49.457Z,97.27
2018-01-31T14:01:49.360Z,97.08
2018-01-31T14:02:49.290Z,96.69
2018-01-31T14:03:49.213Z,97.17
2018-01-31T14:04:49.135Z,97.27
2018-01-31T14:05:49.042Z,96.89
2018-01-31T14:06:48.968Z,96.69
2018-01-31T14:07:48.887Z,97.08
2018-01-31T14:08:48.795Z,96.98
2018-01-31T14:09:48.716Z,96.98
2018-01-31T14:10:48.638Z,96.79
2018-01-31T14:11:48.554Z,96.89
2018-01-31T14:12:48.462Z,96.31
2018-01-31T14:13:48.389Z,96.79
2018-01-31T14:14:48.304Z,97.08
2018-01-31T14:15:48.225Z,96.03
2018-01-31T14:16:48.144Z,95.84
2018-01-31T14:17:48.069Z,95.27
2018-01-31T14:18:47.987Z,95.75
2018-01-31T14:19:47.913Z,95.36
2018-01-31T14:20:47.815Z,95.46
2018-01-31T14:21:47.740Z,95.17
2018-01-31T14:22:47.654Z,95.17
2018-01-31T14:23:47.563Z,95.17
2018-01-31T14:24:47.494Z,94.60
2018-01-31T14:25:47.411Z,94.60
2018-01-31T14:26:47.340Z,94.22
2018-01-31T14:27:47.252Z,94.13
2018-01-31T14:28:47.165Z,94.60
2018-01-31T14:29:47.084Z,95.17
2018-01-31T14:30:47.061Z,95.46
2018-01-31T14:31:46.916Z,94.89
2018-01-31T14:32:46.842Z,93.94
2018-01-31T14:33:46.763Z,93.89
2018-01-31T14:34:46.669Z,94.08
2018-01-31T14:35:46.593Z,93.70
2018-01-31T14:36:46.507Z,94.03
2018-01-31T14:37:46.443Z,94.08
2018-01-31T14:38:46.344Z,93.89
2018-01-31T14:39:46.265Z,94.60
2018-01-31T14:40:46.196Z,94.03
2018-01-31T14:41:46.116Z,93.70
2018-01-31T14:42:46.016Z,94.70
2018-01-31T14:43:45.946Z,94.89
2018-01-31T14:44:45.866Z,94.60
2018-01-31T14:45:45.793Z,94.37
2018-01-31T14:46:45.694Z,94.60
2018-01-31T14:47:45.619Z,94.13
2018-01-31T14:48:45.537Z,94.51
2018-01-31T14:49:45.444Z,94.89
2018-01-31T14:50:45.366Z,94.13
2018-01-31T14:51:45.284Z,94.42
2018-01-31T14:52:45.202Z,94.46